sensor_id;sensor_type;location;lat;lon;timestamp;pressure;altitude;pressure_sealevel;temperature;humidity
61742;BME280;47650;49.848;9.620;2023-10-09T00:02:42;100155.53;;;14.33;89.57
61742;BME280;47650;49.848;9.620;2023-10-09T00:05:08;100182.66;;;14.46;89.75
61742;BME280;47650;49.848;9.620;2023-10-09T00:07:38;100184.09;;;14.41;90.15
61742;BME280;47650;49.848;9.620;2023-10-09T00:10:05;100192.31;;;14.47;89.99
61742;BME280;47650;49.848;9.620;2023-10-09T00:12:42;100188.50;;;14.50;90.09
61742;BME280;47650;49.848;9.620;2023-10-09T00:15:14;100183.16;;;14.50;89.91
61742;BME280;47650;49.848;9.620;2023-10-09T00:17:43;100149.69;;;14.29;89.46
61742;BME280;47650;49.848;9.620;2023-10-09T00:20:12;100185.66;;;14.52;89.20
61742;BME280;47650;49.848;9.620;2023-10-09T00:22:47;100181.19;;;14.52;89.42
61742;BME280;47650;49.848;9.620;2023-10-09T00:25:13;100175.84;;;14.52;89.30
61742;BME280;47650;49.848;9.620;2023-10-09T00:27:48;100180.16;;;14.53;89.30
61742;BME280;47650;49.848;9.620;2023-10-09T00:30:17;100166.81;;;14.53;89.40
61742;BME280;47650;49.848;9.620;2023-10-09T00:32:55;100166.66;;;14.55;89.74
61742;BME280;47650;49.848;9.620;2023-10-09T00:35:25;100143.09;;;14.42;89.42
61742;BME280;47650;49.848;9.620;2023-10-09T00:38:10;100157.41;;;14.59;89.38
61742;BME280;47650;49.848;9.620;2023-10-09T00:40:50;100145.47;;;14.53;89.62
61742;BME280;47650;49.848;9.620;2023-10-09T00:43:29;100133.78;;;14.46;89.56
61742;BME280;47650;49.848;9.620;2023-10-09T00:45:57;100146.00;;;14.57;89.20
61742;BME280;47650;49.848;9.620;2023-10-09T00:48:45;100128.75;;;14.43;88.23
61742;BME280;47650;49.848;9.620;2023-10-09T00:51:16;100109.03;;;14.36;87.71
61742;BME280;47650;49.848;9.620;2023-10-09T00:53:55;100140.16;;;14.53;88.04
61742;BME280;47650;49.848;9.620;2023-10-09T00:56:24;100138.13;;;14.47;87.88
61742;BME280;47650;49.848;9.620;2023-10-09T00:59:00;100098.66;;;14.24;87.69
61742;BME280;47650;49.848;9.620;2023-10-09T01:01:47;100123.03;;;14.38;87.82
61742;BME280;47650;49.848;9.620;2023-10-09T01:04:32;100094.22;;;14.15;88.46
61742;BME280;47650;49.848;9.620;2023-10-09T01:06:57;100061.94;;;13.92;89.44
61742;BME280;47650;49.848;9.620;2023-10-09T01:09:43;100113.47;;;14.27;89.29
61742;BME280;47650;49.848;9.620;2023-10-09T01:12:11;100103.97;;;14.24;89.22
61742;BME280;47650;49.848;9.620;2023-10-09T01:14:44;100095.59;;;14.19;89.78
61742;BME280;47650;49.848;9.620;2023-10-09T01:17:10;100098.78;;;14.23;90.12
61742;BME280;47650;49.848;9.620;2023-10-09T01:19:43;100081.91;;;14.14;90.38
61742;BME280;47650;49.848;9.620;2023-10-09T01:22:11;100050.13;;;13.95;90.31
61742;BME280;47650;49.848;9.620;2023-10-09T01:24:41;100099.47;;;14.25;90.98
61742;BME280;47650;49.848;9.620;2023-10-09T01:27:08;100077.09;;;14.18;91.50
61742;BME280;47650;49.848;9.620;2023-10-09T01:29:47;100077.72;;;14.11;91.38
61742;BME280;47650;49.848;9.620;2023-10-09T01:32:12;100091.84;;;14.30;90.90
61742;BME280;47650;49.848;9.620;2023-10-09T01:34:47;100078.34;;;14.32;90.64
61742;BME280;47650;49.848;9.620;2023-10-09T01:37:22;100080.34;;;14.29;90.87
61742;BME280;47650;49.848;9.620;2023-10-09T01:39:54;99985.38;;;13.76;91.26
61742;BME280;47650;49.848;9.620;2023-10-09T01:42:48;100078.19;;;14.33;90.76
61742;BME280;47650;49.848;9.620;2023-10-09T01:45:16;100052.63;;;14.22;90.81
61742;BME280;47650;49.848;9.620;2023-10-09T01:47:45;100038.72;;;14.10;90.59
61742;BME280;47650;49.848;9.620;2023-10-09T01:50:17;100055.00;;;14.34;90.57
61742;BME280;47650;49.848;9.620;2023-10-09T01:53:04;100073.41;;;14.45;89.60
61742;BME280;47650;49.848;9.620;2023-10-09T01:55:35;99999.50;;;14.03;89.77
61742;BME280;47650;49.848;9.620;2023-10-09T01:58:16;99965.97;;;13.92;89.87
61742;BME280;47650;49.848;9.620;2023-10-09T02:00:53;100045.06;;;14.44;89.72
61742;BME280;47650;49.848;9.620;2023-10-09T02:03:22;99969.50;;;14.01;90.00
61742;BME280;47650;49.848;9.620;2023-10-09T02:06:01;100024.16;;;14.31;90.76
61742;BME280;47650;49.848;9.620;2023-10-09T02:08:28;100051.94;;;14.46;91.05
61742;BME280;47650;49.848;9.620;2023-10-09T02:11:00;100055.25;;;14.48;90.96
61742;BME280;47650;49.848;9.620;2023-10-09T02:13:27;100001.97;;;14.22;90.42
61742;BME280;47650;49.848;9.620;2023-10-09T02:15:59;100023.66;;;14.36;89.95
61742;BME280;47650;49.848;9.620;2023-10-09T02:18:38;100045.56;;;14.47;88.98
61742;BME280;47650;49.848;9.620;2023-10-09T02:21:21;99995.34;;;14.00;90.34
61742;BME280;47650;49.848;9.620;2023-10-09T02:24:06;100008.53;;;14.10;90.70
61742;BME280;47650;49.848;9.620;2023-10-09T02:26:52;100047.16;;;14.32;90.56
61742;BME280;47650;49.848;9.620;2023-10-09T02:29:17;100064.56;;;14.44;90.33
61742;BME280;47650;49.848;9.620;2023-10-09T02:31:50;100055.56;;;14.45;89.95
61742;BME280;47650;49.848;9.620;2023-10-09T02:34:20;100065.94;;;14.57;90.21
61742;BME280;47650;49.848;9.620;2023-10-09T02:36:53;100066.19;;;14.63;89.84
61742;BME280;47650;49.848;9.620;2023-10-09T02:39:31;100063.34;;;14.65;88.04
61742;BME280;47650;49.848;9.620;2023-10-09T02:42:10;100012.53;;;14.40;88.66
61742;BME280;47650;49.848;9.620;2023-10-09T02:44:40;99917.28;;;13.82;89.64
61742;BME280;47650;49.848;9.620;2023-10-09T02:47:12;100060.06;;;14.71;89.85
61742;BME280;47650;49.848;9.620;2023-10-09T02:49:45;100026.94;;;14.56;89.92
61742;BME280;47650;49.848;9.620;2023-10-09T02:52:17;100057.38;;;14.71;89.67
61742;BME280;47650;49.848;9.620;2023-10-09T02:54:51;99991.34;;;14.39;89.79
61742;BME280;47650;49.848;9.620;2023-10-09T02:57:26;100063.13;;;14.93;89.39
61742;BME280;47650;49.848;9.620;2023-10-09T02:59:55;100059.81;;;14.99;89.30
61742;BME280;47650;49.848;9.620;2023-10-09T03:02:25;100047.44;;;14.98;88.96
61742;BME280;47650;49.848;9.620;2023-10-09T03:04:51;100061.31;;;15.10;88.96
61742;BME280;47650;49.848;9.620;2023-10-09T03:07:23;100051.47;;;15.10;89.31
61742;BME280;47650;49.848;9.620;2023-10-09T03:09:51;99975.59;;;14.62;89.20
61742;BME280;47650;49.848;9.620;2023-10-09T03:12:20;99977.00;;;14.74;88.78
61742;BME280;47650;49.848;9.620;2023-10-09T03:14:51;100044.31;;;15.19;88.59
61742;BME280;47650;49.848;9.620;2023-10-09T03:17:18;99955.78;;;14.64;89.97
61742;BME280;47650;49.848;9.620;2023-10-09T03:19:44;99995.53;;;14.92;91.15
61742;BME280;47650;49.848;9.620;2023-10-09T03:22:12;100037.31;;;15.18;90.68
61742;BME280;47650;49.848;9.620;2023-10-09T03:24:38;100020.44;;;15.17;90.79
61742;BME280;47650;49.848;9.620;2023-10-09T03:27:14;100048.53;;;15.30;89.82
61742;BME280;47650;49.848;9.620;2023-10-09T03:29:45;100055.19;;;15.34;91.41
61742;BME280;47650;49.848;9.620;2023-10-09T03:32:20;100043.19;;;15.30;91.33
61742;BME280;47650;49.848;9.620;2023-10-09T03:34:47;100030.66;;;15.30;90.78
61742;BME280;47650;49.848;9.620;2023-10-09T03:37:18;100036.16;;;15.37;89.65
61742;BME280;47650;49.848;9.620;2023-10-09T03:39:47;100077.41;;;15.42;88.92
61742;BME280;47650;49.848;9.620;2023-10-09T03:42:13;100003.09;;;15.21;89.35
61742;BME280;47650;49.848;9.620;2023-10-09T03:44:46;99992.88;;;15.09;88.83
61742;BME280;47650;49.848;9.620;2023-10-09T03:47:19;100039.16;;;15.26;89.55
61742;BME280;47650;49.848;9.620;2023-10-09T03:49:50;99986.84;;;14.82;90.69
61742;BME280;47650;49.848;9.620;2023-10-09T03:52:20;100009.03;;;14.82;92.02
61742;BME280;47650;49.848;9.620;2023-10-09T03:54:45;100019.59;;;14.58;95.04
61742;BME280;47650;49.848;9.620;2023-10-09T03:57:12;100017.63;;;14.60;95.15
61742;BME280;47650;49.848;9.620;2023-10-09T03:59:43;99966.31;;;13.27;99.88
61742;BME280;47650;49.848;9.620;2023-10-09T04:02:10;100038.91;;;13.65;100.00
61742;BME280;47650;49.848;9.620;2023-10-09T04:04:37;100027.56;;;13.27;100.00
61742;BME280;47650;49.848;9.620;2023-10-09T04:07:02;100028.78;;;12.96;100.00
61742;BME280;47650;49.848;9.620;2023-10-09T04:09:29;100035.16;;;13.04;100.00
61742;BME280;47650;49.848;9.620;2023-10-09T04:12:06;99990.88;;;12.67;100.00
61742;BME280;47650;49.848;9.620;2023-10-09T04:14:34;100021.31;;;13.18;100.00
61742;BME280;47650;49.848;9.620;2023-10-09T04:17:06;100022.78;;;13.48;100.00
61742;BME280;47650;49.848;9.620;2023-10-09T04:19:51;99954.53;;;13.29;100.00
61742;BME280;47650;49.848;9.620;2023-10-09T04:22:39;100018.59;;;13.90;100.00
61742;BME280;47650;49.848;9.620;2023-10-09T04:25:08;100007.78;;;13.91;100.00
61742;BME280;47650;49.848;9.620;2023-10-09T04:27:43;99944.44;;;13.59;100.00
61742;BME280;47650;49.848;9.620;2023-10-09T04:30:12;99987.66;;;13.71;100.00
61742;BME280;47650;49.848;9.620;2023-10-09T04:32:42;99972.25;;;13.83;100.00
61742;BME280;47650;49.848;9.620;2023-10-09T04:35:11;100011.78;;;14.22;100.00
61742;BME280;47650;49.848;9.620;2023-10-09T04:37:53;100021.88;;;14.36;100.00
61742;BME280;47650;49.848;9.620;2023-10-09T04:40:29;100016.69;;;14.43;100.00
61742;BME280;47650;49.848;9.620;2023-10-09T04:43:14;100021.31;;;14.59;100.00
61742;BME280;47650;49.848;9.620;2023-10-09T04:45:49;100001.63;;;14.60;100.00
61742;BME280;47650;49.848;9.620;2023-10-09T04:48:32;99997.31;;;14.67;100.00
61742;BME280;47650;49.848;9.620;2023-10-09T04:51:00;100013.69;;;14.80;98.94
61742;BME280;47650;49.848;9.620;2023-10-09T04:53:44;100020.72;;;14.81;98.55
61742;BME280;47650;49.848;9.620;2023-10-09T04:56:13;100017.72;;;14.93;98.71
61742;BME280;47650;49.848;9.620;2023-10-09T04:58:40;99875.56;;;14.07;97.59
61742;BME280;47650;49.848;9.620;2023-10-09T05:01:09;100012.56;;;14.99;97.89
61742;BME280;47650;49.848;9.620;2023-10-09T05:03:39;100002.38;;;14.95;96.75
61742;BME280;47650;49.848;9.620;2023-10-09T05:06:07;100011.94;;;15.06;95.07
61742;BME280;47650;49.848;9.620;2023-10-09T05:08:54;99994.03;;;14.98;95.03
61742;BME280;47650;49.848;9.620;2023-10-09T05:11:27;99998.22;;;15.09;95.48
61742;BME280;47650;49.848;9.620;2023-10-09T05:14:18;100012.63;;;15.16;94.18
61742;BME280;47650;49.848;9.620;2023-10-09T05:16:54;99972.00;;;14.88;93.43
61742;BME280;47650;49.848;9.620;2023-10-09T05:19:21;99955.28;;;14.61;93.52
61742;BME280;47650;49.848;9.620;2023-10-09T05:22:21;99985.38;;;14.45;95.44
61742;BME280;47650;49.848;9.620;2023-10-09T05:24:59;99905.56;;;13.75;96.82
61742;BME280;47650;49.848;9.620;2023-10-09T05:27:25;99980.44;;;14.24;99.55
61742;BME280;47650;49.848;9.620;2023-10-09T05:30:10;100006.22;;;14.49;99.69
61742;BME280;47650;49.848;9.620;2023-10-09T05:32:59;99933.72;;;14.03;97.91
61742;BME280;47650;49.848;9.620;2023-10-09T05:35:41;100005.78;;;14.20;100.00
61742;BME280;47650;49.848;9.620;2023-10-09T05:38:24;99948.84;;;13.95;100.00
61742;BME280;47650;49.848;9.620;2023-10-09T05:40:51;100007.97;;;14.33;100.00
61742;BME280;47650;49.848;9.620;2023-10-09T05:43:20;100013.16;;;14.34;100.00
61742;BME280;47650;49.848;9.620;2023-10-09T05:46:16;99991.81;;;14.34;100.00
61742;BME280;47650;49.848;9.620;2023-10-09T05:48:44;100004.75;;;14.55;100.00
61742;BME280;47650;49.848;9.620;2023-10-09T05:51:21;100004.06;;;14.53;98.69
61742;BME280;47650;49.848;9.620;2023-10-09T05:54:05;99995.59;;;14.58;97.19
61742;BME280;47650;49.848;9.620;2023-10-09T05:56:37;100003.91;;;14.55;96.29
61742;BME280;47650;49.848;9.620;2023-10-09T05:59:21;99988.91;;;14.54;97.64
61742;BME280;47650;49.848;9.620;2023-10-09T06:02:11;99996.84;;;14.80;97.83
61742;BME280;47650;49.848;9.620;2023-10-09T06:05:05;99936.88;;;14.58;97.09
61742;BME280;47650;49.848;9.620;2023-10-09T06:07:50;99992.19;;;14.98;94.83
61742;BME280;47650;49.848;9.620;2023-10-09T06:10:31;100008.75;;;15.18;94.26
61742;BME280;47650;49.848;9.620;2023-10-09T06:13:07;100008.75;;;15.18;93.03
61742;BME280;47650;49.848;9.620;2023-10-09T06:15:56;100015.44;;;15.31;92.58
61742;BME280;47650;49.848;9.620;2023-10-09T06:18:46;99975.03;;;15.17;91.43
61742;BME280;47650;49.848;9.620;2023-10-09T06:21:38;99989.06;;;15.28;90.64
61742;BME280;47650;49.848;9.620;2023-10-09T06:24:32;100007.78;;;15.52;90.28
61742;BME280;47650;49.848;9.620;2023-10-09T06:27:15;99964.69;;;15.31;90.13
61742;BME280;47650;49.848;9.620;2023-10-09T06:30:07;100012.63;;;15.49;89.69
61742;BME280;47650;49.848;9.620;2023-10-09T06:32:53;99970.03;;;15.22;90.11
61742;BME280;47650;49.848;9.620;2023-10-09T06:35:24;100003.41;;;15.43;90.70
61742;BME280;47650;49.848;9.620;2023-10-09T06:37:58;99988.09;;;15.45;91.59
61742;BME280;47650;49.848;9.620;2023-10-09T06:40:35;100004.91;;;15.62;90.99
61742;BME280;47650;49.848;9.620;2023-10-09T06:43:20;100008.44;;;15.63;90.18
61742;BME280;47650;49.848;9.620;2023-10-09T06:45:48;100005.41;;;15.74;89.94
61742;BME280;47650;49.848;9.620;2023-10-09T06:48:24;100023.13;;;15.91;89.31
61742;BME280;47650;49.848;9.620;2023-10-09T06:51:06;99983.34;;;15.88;87.58
61742;BME280;47650;49.848;9.620;2023-10-09T06:54:01;99998.72;;;15.94;85.75
61742;BME280;47650;49.848;9.620;2023-10-09T06:56:35;99957.31;;;15.90;85.71
61742;BME280;47650;49.848;9.620;2023-10-09T06:59:05;100016.69;;;16.33;84.88
61742;BME280;47650;49.848;9.620;2023-10-09T07:01:42;99943.00;;;15.42;85.84
61742;BME280;47650;49.848;9.620;2023-10-09T07:04:09;100011.38;;;16.09;87.06
61742;BME280;47650;49.848;9.620;2023-10-09T07:06:52;100012.00;;;16.27;86.21
61742;BME280;47650;49.848;9.620;2023-10-09T07:09:18;100019.78;;;16.45;86.29
61742;BME280;47650;49.848;9.620;2023-10-09T07:11:50;99872.25;;;15.69;84.69
61742;BME280;47650;49.848;9.620;2023-10-09T07:14:23;100033.50;;;16.82;83.33
61742;BME280;47650;49.848;9.620;2023-10-09T07:17:10;99998.91;;;16.80;80.83
61742;BME280;47650;49.848;9.620;2023-10-09T07:19:45;100017.66;;;17.12;80.09
61742;BME280;47650;49.848;9.620;2023-10-09T07:22:12;100021.63;;;17.16;80.46
61742;BME280;47650;49.848;9.620;2023-10-09T07:24:46;99933.63;;;16.19;82.73
61742;BME280;47650;49.848;9.620;2023-10-09T07:27:18;100019.09;;;16.91;82.93
61742;BME280;47650;49.848;9.620;2023-10-09T07:30:09;100025.03;;;16.39;87.07
61742;BME280;47650;49.848;9.620;2023-10-09T07:32:53;100016.09;;;16.94;87.26
61742;BME280;47650;49.848;9.620;2023-10-09T07:35:22;100006.78;;;17.28;83.93
61742;BME280;47650;49.848;9.620;2023-10-09T07:38:23;99965.31;;;17.39;80.14
61742;BME280;47650;49.848;9.620;2023-10-09T07:40:56;100012.16;;;17.05;79.59
61742;BME280;47650;49.848;9.620;2023-10-09T07:43:41;99968.44;;;16.50;82.90
61742;BME280;47650;49.848;9.620;2023-10-09T07:46:14;100010.81;;;16.69;84.02
61742;BME280;47650;49.848;9.620;2023-10-09T07:49:03;100018.91;;;17.24;82.33
61742;BME280;47650;49.848;9.620;2023-10-09T07:51:40;99976.50;;;16.73;82.14
61742;BME280;47650;49.848;9.620;2023-10-09T07:54:09;99996.38;;;17.10;80.93
61742;BME280;47650;49.848;9.620;2023-10-09T07:56:38;99999.41;;;17.30;80.78
61742;BME280;47650;49.848;9.620;2023-10-09T07:59:12;99996.13;;;17.43;80.25
61742;BME280;47650;49.848;9.620;2023-10-09T08:01:45;100025.78;;;17.41;80.89
61742;BME280;47650;49.848;9.620;2023-10-09T08:04:25;100030.59;;;18.07;80.13
61742;BME280;47650;49.848;9.620;2023-10-09T08:07:10;99965.28;;;18.00;77.21
61742;BME280;47650;49.848;9.620;2023-10-09T08:09:45;99969.88;;;18.36;74.67
61742;BME280;47650;49.848;9.620;2023-10-09T08:12:12;99986.41;;;18.54;72.21
61742;BME280;47650;49.848;9.620;2023-10-09T08:15:05;99932.75;;;18.39;72.09
61742;BME280;47650;49.848;9.620;2023-10-09T08:17:57;100005.69;;;18.94;71.45
61742;BME280;47650;49.848;9.620;2023-10-09T08:20:30;100014.00;;;19.00;71.78
61742;BME280;47650;49.848;9.620;2023-10-09T08:23:15;100029.72;;;18.51;74.29
61742;BME280;47650;49.848;9.620;2023-10-09T08:26:02;100025.41;;;18.50;75.60
61742;BME280;47650;49.848;9.620;2023-10-09T08:28:44;100023.38;;;18.22;78.63
61742;BME280;47650;49.848;9.620;2023-10-09T08:31:12;100044.94;;;18.59;76.08
61742;BME280;47650;49.848;9.620;2023-10-09T08:33:47;100055.44;;;18.01;78.73
61742;BME280;47650;49.848;9.620;2023-10-09T08:36:25;100049.38;;;18.52;76.38
61742;BME280;47650;49.848;9.620;2023-10-09T08:38:55;99979.31;;;18.32;73.57
61742;BME280;47650;49.848;9.620;2023-10-09T08:41:24;100021.16;;;18.92;73.16
61742;BME280;47650;49.848;9.620;2023-10-09T08:43:56;100031.69;;;19.30;71.68
61742;BME280;47650;49.848;9.620;2023-10-09T08:46:32;100033.47;;;19.45;70.15
61742;BME280;47650;49.848;9.620;2023-10-09T08:48:59;100053.56;;;19.70;69.81
61742;BME280;47650;49.848;9.620;2023-10-09T08:51:28;100059.72;;;19.86;68.87
61742;BME280;47650;49.848;9.620;2023-10-09T08:53:55;100075.53;;;19.31;70.08
61742;BME280;47650;49.848;9.620;2023-10-09T08:56:21;100073.63;;;19.89;69.41
61742;BME280;47650;49.848;9.620;2023-10-09T08:58:57;100077.91;;;19.19;72.72
61742;BME280;47650;49.848;9.620;2023-10-09T09:01:28;100039.22;;;17.79;78.74
61742;BME280;47650;49.848;9.620;2023-10-09T09:03:59;100073.03;;;18.93;76.21
61742;BME280;47650;49.848;9.620;2023-10-09T09:06:36;100072.28;;;19.14;75.36
61742;BME280;47650;49.848;9.620;2023-10-09T09:09:12;100044.22;;;19.02;73.85
61742;BME280;47650;49.848;9.620;2023-10-09T09:11:42;100081.34;;;19.13;76.66
61742;BME280;47650;49.848;9.620;2023-10-09T09:14:14;100059.38;;;18.88;76.11
61742;BME280;47650;49.848;9.620;2023-10-09T09:16:49;99947.41;;;17.92;77.29
61742;BME280;47650;49.848;9.620;2023-10-09T09:19:18;100065.19;;;18.91;75.78
61742;BME280;47650;49.848;9.620;2023-10-09T09:21:57;100078.06;;;17.83;80.93
61742;BME280;47650;49.848;9.620;2023-10-09T09:24:25;100058.25;;;18.37;79.32
61742;BME280;47650;49.848;9.620;2023-10-09T09:26:52;100062.00;;;17.60;81.97
61742;BME280;47650;49.848;9.620;2023-10-09T09:29:25;100065.94;;;18.55;79.02
61742;BME280;47650;49.848;9.620;2023-10-09T09:32:09;100013.88;;;18.56;76.70
61742;BME280;47650;49.848;9.620;2023-10-09T09:34:48;100051.66;;;18.70;79.64
61742;BME280;47650;49.848;9.620;2023-10-09T09:37:24;100046.00;;;18.79;81.29
61742;BME280;47650;49.848;9.620;2023-10-09T09:40:19;100015.19;;;18.60;79.72
61742;BME280;47650;49.848;9.620;2023-10-09T09:43:05;100031.41;;;18.67;78.73
61742;BME280;47650;49.848;9.620;2023-10-09T09:45:38;100049.34;;;18.96;79.46
61742;BME280;47650;49.848;9.620;2023-10-09T09:48:11;99997.38;;;18.89;78.86
61742;BME280;47650;49.848;9.620;2023-10-09T09:50:41;99878.03;;;18.40;76.29
61742;BME280;47650;49.848;9.620;2023-10-09T09:53:15;100019.81;;;19.40;74.66
61742;BME280;47650;49.848;9.620;2023-10-09T09:55:54;100012.97;;;19.65;74.44
61742;BME280;47650;49.848;9.620;2023-10-09T09:58:26;100053.81;;;19.97;71.96
61742;BME280;47650;49.848;9.620;2023-10-09T10:01:08;100055.19;;;20.15;71.95
61742;BME280;47650;49.848;9.620;2023-10-09T10:04:14;100033.28;;;19.46;73.42
61742;BME280;47650;49.848;9.620;2023-10-09T10:06:46;100045.72;;;20.25;72.09
61742;BME280;47650;49.848;9.620;2023-10-09T10:09:36;100059.97;;;20.54;68.73
61742;BME280;47650;49.848;9.620;2023-10-09T10:12:05;100019.63;;;20.67;69.51
61742;BME280;47650;49.848;9.620;2023-10-09T10:14:56;100047.63;;;20.66;68.21
61742;BME280;47650;49.848;9.620;2023-10-09T10:17:24;100038.06;;;20.64;67.36
61742;BME280;47650;49.848;9.620;2023-10-09T10:20:08;100042.78;;;21.10;68.01
61742;BME280;47650;49.848;9.620;2023-10-09T10:23:15;100037.66;;;21.29;67.53
61742;BME280;47650;49.848;9.620;2023-10-09T10:25:55;100017.72;;;21.43;66.47
61742;BME280;47650;49.848;9.620;2023-10-09T10:28:41;100029.59;;;21.55;67.07
61742;BME280;47650;49.848;9.620;2023-10-09T10:31:11;100044.13;;;21.88;66.69
61742;BME280;47650;49.848;9.620;2023-10-09T10:36:22;100042.84;;;22.17;60.60
61742;BME280;47650;49.848;9.620;2023-10-09T10:39:08;100025.38;;;22.26;62.41
61742;BME280;47650;49.848;9.620;2023-10-09T10:41:52;100026.63;;;22.24;63.52
61742;BME280;47650;49.848;9.620;2023-10-09T10:44:32;100041.88;;;21.65;63.94
61742;BME280;47650;49.848;9.620;2023-10-09T10:47:11;100055.47;;;21.36;66.80
61742;BME280;47650;49.848;9.620;2023-10-09T10:49:58;100060.53;;;21.86;65.05
61742;BME280;47650;49.848;9.620;2023-10-09T10:52:32;99898.44;;;21.21;65.43
61742;BME280;47650;49.848;9.620;2023-10-09T10:55:11;100058.00;;;22.31;61.20
61742;BME280;47650;49.848;9.620;2023-10-09T10:58:24;100091.47;;;22.04;61.83
61742;BME280;47650;49.848;9.620;2023-10-09T11:00:58;100070.25;;;20.79;68.24
61742;BME280;47650;49.848;9.620;2023-10-09T11:03:25;100125.38;;;21.31;67.36
61742;BME280;47650;49.848;9.620;2023-10-09T11:06:33;100119.25;;;21.51;68.25
61742;BME280;47650;49.848;9.620;2023-10-09T11:09:08;100057.34;;;21.36;68.39
61742;BME280;47650;49.848;9.620;2023-10-09T11:11:48;100094.75;;;21.59;66.38
61742;BME280;47650;49.848;9.620;2023-10-09T11:14:14;100077.75;;;21.98;65.12
61742;BME280;47650;49.848;9.620;2023-10-09T11:16:41;100057.78;;;22.40;63.50
61742;BME280;47650;49.848;9.620;2023-10-09T11:19:10;100023.94;;;22.17;58.99
61742;BME280;47650;49.848;9.620;2023-10-09T11:22:00;99997.00;;;22.62;57.49
61742;BME280;47650;49.848;9.620;2023-10-09T11:24:35;99941.94;;;22.05;57.11
61742;BME280;47650;49.848;9.620;2023-10-09T11:27:03;99916.00;;;21.90;56.22
61742;BME280;47650;49.848;9.620;2023-10-09T11:29:36;99959.59;;;21.94;57.35
61742;BME280;47650;49.848;9.620;2023-10-09T11:32:19;99937.19;;;21.93;56.49
61742;BME280;47650;49.848;9.620;2023-10-09T11:35:09;99911.97;;;22.13;57.31
61742;BME280;47650;49.848;9.620;2023-10-09T11:37:44;99922.81;;;22.06;56.55
61742;BME280;47650;49.848;9.620;2023-10-09T11:40:33;99940.25;;;22.10;55.73
61742;BME280;47650;49.848;9.620;2023-10-09T11:43:18;99883.50;;;21.65;56.38
61742;BME280;47650;49.848;9.620;2023-10-09T11:45:51;99918.28;;;21.93;56.31
61742;BME280;47650;49.848;9.620;2023-10-09T11:48:21;99920.13;;;22.58;54.73
61742;BME280;47650;49.848;9.620;2023-10-09T11:51:13;99889.78;;;22.04;55.04
61742;BME280;47650;49.848;9.620;2023-10-09T11:53:47;99915.75;;;22.89;53.23
61742;BME280;47650;49.848;9.620;2023-10-09T11:56:25;99909.19;;;21.81;55.22
61742;BME280;47650;49.848;9.620;2023-10-09T11:58:54;99922.72;;;22.26;54.60
61742;BME280;47650;49.848;9.620;2023-10-09T12:01:26;99920.63;;;21.70;55.80
61742;BME280;47650;49.848;9.620;2023-10-09T12:04:01;99903.78;;;21.74;55.73
61742;BME280;47650;49.848;9.620;2023-10-09T12:06:41;99901.53;;;21.38;55.62
61742;BME280;47650;49.848;9.620;2023-10-09T12:09:28;99876.75;;;21.94;54.82
61742;BME280;47650;49.848;9.620;2023-10-09T12:11:55;99913.69;;;22.52;53.32
61742;BME280;47650;49.848;9.620;2023-10-09T12:14:26;99875.59;;;21.70;54.00
61742;BME280;47650;49.848;9.620;2023-10-09T12:17:00;99903.69;;;22.08;53.55
61742;BME280;47650;49.848;9.620;2023-10-09T12:19:32;99904.47;;;22.28;52.52
61742;BME280;47650;49.848;9.620;2023-10-09T12:21:58;99889.13;;;22.15;51.22
61742;BME280;47650;49.848;9.620;2023-10-09T12:24:28;99910.97;;;22.01;52.15
61742;BME280;47650;49.848;9.620;2023-10-09T12:26:55;99907.66;;;22.89;50.08
61742;BME280;47650;49.848;9.620;2023-10-09T12:29:21;99905.91;;;22.69;51.03
61742;BME280;47650;49.848;9.620;2023-10-09T12:31:48;99859.88;;;22.51;50.34
61742;BME280;47650;49.848;9.620;2023-10-09T12:34:14;99885.88;;;23.78;48.50
61742;BME280;47650;49.848;9.620;2023-10-09T12:36:45;99892.47;;;23.45;47.91
61742;BME280;47650;49.848;9.620;2023-10-09T12:39:18;99898.09;;;23.43;46.91
61742;BME280;47650;49.848;9.620;2023-10-09T12:41:47;99827.88;;;23.49;45.48
61742;BME280;47650;49.848;9.620;2023-10-09T12:44:14;99893.78;;;23.79;45.09
61742;BME280;47650;49.848;9.620;2023-10-09T12:46:41;99876.63;;;22.66;46.86
61742;BME280;47650;49.848;9.620;2023-10-09T12:49:09;99880.06;;;24.30;44.83
61742;BME280;47650;49.848;9.620;2023-10-09T12:51:37;99846.38;;;24.37;44.34
61742;BME280;47650;49.848;9.620;2023-10-09T12:54:06;99861.97;;;24.84;43.25
61742;BME280;47650;49.848;9.620;2023-10-09T12:56:32;99886.22;;;25.21;43.16
61742;BME280;47650;49.848;9.620;2023-10-09T12:59:00;99801.88;;;24.45;42.88
61742;BME280;47650;49.848;9.620;2023-10-09T13:01:28;99876.28;;;25.03;42.19
61742;BME280;47650;49.848;9.620;2023-10-09T13:04:09;99886.72;;;24.76;42.50
61742;BME280;47650;49.848;9.620;2023-10-09T13:06:39;99861.41;;;25.18;41.56
61742;BME280;47650;49.848;9.620;2023-10-09T13:09:16;99814.59;;;24.87;42.29
61742;BME280;47650;49.848;9.620;2023-10-09T13:11:50;99855.06;;;25.24;41.77
61742;BME280;47650;49.848;9.620;2023-10-09T13:14:16;99907.47;;;24.21;44.18
61742;BME280;47650;49.848;9.620;2023-10-09T13:16:53;99840.28;;;23.56;44.89
61742;BME280;47650;49.848;9.620;2023-10-09T13:19:19;99897.69;;;23.83;44.91
61742;BME280;47650;49.848;9.620;2023-10-09T13:21:45;99897.47;;;23.85;44.81
61742;BME280;47650;49.848;9.620;2023-10-09T13:24:12;99827.72;;;24.17;42.03
61742;BME280;47650;49.848;9.620;2023-10-09T13:26:42;99870.53;;;24.57;42.65
61742;BME280;47650;49.848;9.620;2023-10-09T13:29:13;99846.38;;;23.33;43.54
61742;BME280;47650;49.848;9.620;2023-10-09T13:31:39;99885.63;;;24.35;42.73
61742;BME280;47650;49.848;9.620;2023-10-09T13:34:12;99887.19;;;24.73;42.18
61742;BME280;47650;49.848;9.620;2023-10-09T13:36:44;99873.91;;;24.95;42.80
61742;BME280;47650;49.848;9.620;2023-10-09T13:39:18;99876.63;;;24.23;41.79